Time;durP1;ratioP1;P1;durP2;ratioP2;P2;SDS_P1;SDS_P2;PMS_P1;PMS_P2;Temp;Humidity;BMP_temperature;BMP_pressure;BME280_temperature;BME280_humidity;BME280_pressure;Samples;Min_cycle;Max_cycle;Signal;HPM_P1;HPM_P2
2023/06/01 00:02:19;;;;;;;8.80;6.10;;;;;;;23.39;39.84;100663.75;105364;1300;69054;-86
2023/06/01 00:04:45;;;;;;;10.30;6.60;;;;;;;23.38;39.75;100663.13;105372;1299;67913;-87
2023/06/01 00:07:11;;;;;;;9.10;6.50;;;;;;;23.39;39.63;100666.73;105429;1300;67699;-86
2023/06/01 00:09:36;;;;;;;8.70;6.60;;;;;;;23.39;39.56;100668.11;105493;1299;67757;-87
2023/06/01 00:12:03;;;;;;;8.40;6.20;;;;;;;23.39;39.51;100665.53;105409;1299;74392;-86
2023/06/01 00:14:28;;;;;;;9.50;6.20;;;;;;;23.38;39.55;100670.16;105571;1303;67668;-87
2023/06/01 00:16:55;;;;;;;8.30;6.10;;;;;;;23.39;39.53;100668.98;105439;1300;67787;-86
2023/06/01 00:19:31;;;;;;;9.90;6.50;;;;;;;23.38;39.53;100667.19;105404;1299;67655;-92
2023/06/01 00:21:57;;;;;;;9.50;6.40;;;;;;;23.38;39.59;100666.20;105459;1299;67636;-86
2023/06/01 00:24:23;;;;;;;11.10;5.80;;;;;;;23.38;39.46;100667.75;105369;1299;67188;-86
2023/06/01 00:26:48;;;;;;;9.70;6.30;;;;;;;23.37;39.51;100665.30;105423;1300;67773;-87
2023/06/01 00:29:14;;;;;;;10.40;6.10;;;;;;;23.39;39.43;100666.15;105384;1298;67653;-86
2023/06/01 00:31:40;;;;;;;8.00;6.20;;;;;;;23.38;39.43;100663.80;105478;1299;68383;-86
2023/06/01 00:34:07;;;;;;;9.40;6.80;;;;;;;23.38;39.34;100666.73;105500;1299;67810;-86
2023/06/01 00:36:33;;;;;;;7.70;6.00;;;;;;;23.38;39.28;100671.55;105333;1300;74536;-87
2023/06/01 00:39:02;;;;;;;7.60;6.30;;;;;;;23.38;39.19;100672.13;105504;1298;67744;-86
2023/06/01 00:41:31;;;;;;;8.30;6.20;;;;;;;23.38;39.16;100665.45;105387;1300;67787;-87
2023/06/01 00:43:57;;;;;;;9.10;6.10;;;;;;;23.38;39.06;100666.98;105734;1299;67720;-86
2023/06/01 00:46:22;;;;;;;8.70;6.00;;;;;;;23.38;39.07;100670.67;105386;1298;67788;-87
2023/06/01 00:48:48;;;;;;;9.80;5.80;;;;;;;23.38;39.09;100670.83;105427;1299;68088;-86
2023/06/01 00:51:15;;;;;;;9.30;5.70;;;;;;;23.37;39.12;100671.77;105666;1299;67809;-87
2023/06/01 00:53:41;;;;;;;8.80;6.10;;;;;;;23.37;39.06;100672.02;105752;1299;67051;-86
2023/06/01 00:56:07;;;;;;;6.60;5.70;;;;;;;23.36;39.08;100665.88;105776;1303;68219;-87
2023/06/01 00:58:32;;;;;;;8.30;6.30;;;;;;;23.37;39.04;100667.20;105630;1305;67707;-87
2023/06/01 01:00:58;;;;;;;8.20;6.00;;;;;;;23.37;38.95;100672.13;105321;1299;67961;-86
2023/06/01 01:03:25;;;;;;;7.10;6.10;;;;;;;23.37;38.83;100668.84;105294;1303;67864;-86
2023/06/01 01:05:52;;;;;;;9.00;6.00;;;;;;;23.37;38.95;100666.79;105441;1299;67902;-86
2023/06/01 01:08:28;;;;;;;8.70;5.70;;;;;;;23.37;38.95;100666.01;105420;1299;67862;-86
2023/06/01 01:11:15;;;;;;;8.00;5.90;;;;;;;23.36;38.86;100662.69;105351;1298;74618;-86
2023/06/01 01:13:44;;;;;;;9.60;5.70;;;;;;;23.36;38.94;100666.73;105329;1302;67742;-87
2023/06/01 01:16:29;;;;;;;10.70;6.10;;;;;;;23.35;38.92;100659.98;105256;1299;67822;-91
2023/06/01 01:21:37;;;;;;;7.40;5.70;;;;;;;23.35;38.80;100659.52;105541;1297;67855;-86
2023/06/01 01:24:22;;;;;;;7.70;6.40;;;;;;;23.35;38.75;100656.34;105427;1297;67978;-86
2023/06/01 01:27:05;;;;;;;9.50;5.90;;;;;;;23.35;38.86;100658.59;105485;1297;67571;-86
2023/06/01 01:29:31;;;;;;;8.20;6.00;;;;;;;23.34;38.77;100660.65;105345;1302;68643;-86
2023/06/01 01:31:57;;;;;;;7.60;5.80;;;;;;;23.35;38.81;100655.91;105367;1297;67836;-86
2023/06/01 01:34:22;;;;;;;9.70;6.30;;;;;;;23.35;38.78;100655.61;105449;1303;67831;-86
2023/06/01 01:36:48;;;;;;;9.40;6.00;;;;;;;23.35;38.73;100656.45;105367;1297;67872;-86
2023/06/01 01:39:14;;;;;;;7.20;5.50;;;;;;;23.35;38.73;100662.08;105461;1297;67174;-86
2023/06/01 01:41:40;;;;;;;10.40;6.10;;;;;;;23.36;38.59;100661.41;105483;1297;67888;-86
2023/06/01 01:44:05;;;;;;;8.70;6.00;;;;;;;23.35;38.63;100666.70;105597;1296;69078;-86
2023/06/01 01:47:06;;;;;;;10.40;5.90;;;;;;;23.35;38.64;100661.47;105482;1301;68559;-87
2023/06/01 01:49:53;;;;;;;7.60;5.90;;;;;;;23.34;38.62;100666.00;105597;1299;67892;-87
2023/06/01 01:52:22;;;;;;;11.50;6.20;;;;;;;23.34;38.75;100668.20;105439;1297;67922;-86
2023/06/01 01:54:49;;;;;;;7.50;6.00;;;;;;;23.34;38.70;100664.91;105529;1297;67779;-86
2023/06/01 01:57:16;;;;;;;6.60;5.70;;;;;;;23.35;38.58;100664.25;105419;1297;68655;-86
2023/06/01 01:59:42;;;;;;;7.40;6.30;;;;;;;23.34;38.60;100663.63;105348;1302;67832;-86
2023/06/01 02:02:07;;;;;;;10.60;6.40;;;;;;;23.34;38.59;100660.38;105450;1297;68272;-86
2023/06/01 02:04:38;;;;;;;7.50;6.00;;;;;;;23.34;38.69;100663.33;105412;1299;68007;-87
2023/06/01 02:07:04;;;;;;;10.50;6.80;;;;;;;23.34;38.74;100660.40;105371;1298;67587;-87
2023/06/01 02:09:30;;;;;;;7.50;5.50;;;;;;;23.34;38.59;100660.20;105502;1297;68106;-86
2023/06/01 02:11:55;;;;;;;9.80;6.20;;;;;;;23.35;38.47;100659.57;105365;1300;67834;-86
2023/06/01 02:14:21;;;;;;;6.90;6.10;;;;;;;23.34;38.61;100655.97;105338;1298;67749;-86
2023/06/01 02:16:46;;;;;;;7.60;5.90;;;;;;;23.34;38.63;100655.01;105434;1297;67769;-86
2023/06/01 02:19:15;;;;;;;9.90;6.40;;;;;;;23.35;38.67;100656.89;105406;1299;67201;-87
2023/06/01 02:21:42;;;;;;;8.30;6.00;;;;;;;23.34;38.71;100655.38;105421;1300;74495;-86
2023/06/01 02:24:08;;;;;;;9.00;5.60;;;;;;;23.34;38.71;100659.94;105300;1300;67914;-86
2023/06/01 02:26:34;;;;;;;8.00;6.20;;;;;;;23.34;38.73;100661.79;105414;1298;68948;-86
2023/06/01 02:29:02;;;;;;;7.80;5.30;;;;;;;23.35;38.64;100662.38;105369;1299;67781;-86
2023/06/01 02:31:28;;;;;;;8.30;5.50;;;;;;;23.34;38.80;100664.34;105341;1298;67782;-86
2023/06/01 02:34:02;;;;;;;8.20;6.10;;;;;;;23.34;38.70;100666.56;105288;1297;68738;-91
2023/06/01 02:36:31;;;;;;;7.00;5.80;;;;;;;23.34;38.65;100664.83;105556;1299;67896;-86
2023/06/01 02:38:57;;;;;;;7.90;6.10;;;;;;;23.33;38.73;100667.04;105350;1299;67745;-86
2023/06/01 02:41:23;;;;;;;11.50;6.20;;;;;;;23.33;38.63;100667.19;105424;1298;69307;-86
2023/06/01 02:43:50;;;;;;;6.90;5.80;;;;;;;23.33;38.66;100667.03;105470;1299;67816;-86
2023/06/01 02:46:17;;;;;;;8.00;6.20;;;;;;;23.33;38.72;100669.70;105357;1297;67842;-87
2023/06/01 02:51:23;;;;;;;7.40;5.70;;;;;;;23.33;38.76;100669.14;105547;1297;67868;-86
2023/06/01 02:53:49;;;;;;;9.80;6.20;;;;;;;23.33;38.60;100665.90;105453;1297;67967;-86
2023/06/01 02:56:15;;;;;;;12.00;6.00;;;;;;;23.33;38.63;100662.20;105306;1300;67993;-86
2023/06/01 02:58:41;;;;;;;7.30;6.00;;;;;;;23.33;38.81;100664.46;105424;1296;68614;-86
2023/06/01 03:01:11;;;;;;;7.80;5.40;;;;;;;23.33;38.78;100663.75;105309;1298;68171;-87
2023/06/01 03:06:21;;;;;;;9.30;6.00;;;;;;;23.33;38.66;100668.11;105572;1297;67136;-86
2023/06/01 03:08:47;;;;;;;7.90;6.30;;;;;;;23.32;38.69;100665.23;105383;1299;67712;-86
2023/06/01 03:11:13;;;;;;;8.80;6.10;;;;;;;23.32;38.74;100665.65;105396;1296;68458;-86
2023/06/01 03:13:38;;;;;;;10.10;5.80;;;;;;;23.33;38.71;100664.88;105457;1297;67972;-86
2023/06/01 03:16:04;;;;;;;6.90;5.80;;;;;;;23.33;38.69;100663.23;105440;1297;68444;-86
2023/06/01 03:18:30;;;;;;;7.00;6.10;;;;;;;23.33;38.74;100665.13;105282;1297;67954;-86
2023/06/01 03:20:55;;;;;;;8.70;6.00;;;;;;;23.33;38.69;100666.98;105441;1297;68427;-86
2023/06/01 03:23:21;;;;;;;8.10;6.50;;;;;;;23.32;38.70;100663.38;105297;1297;67894;-86
2023/06/01 03:25:46;;;;;;;7.30;5.50;;;;;;;23.32;38.85;100666.63;105473;1297;68047;-86
2023/06/01 03:28:12;;;;;;;9.80;5.60;;;;;;;23.32;38.68;100667.70;105409;1297;67863;-86
2023/06/01 03:30:47;;;;;;;7.10;5.60;;;;;;;23.33;38.69;100670.78;105452;1299;68086;-91
2023/06/01 03:33:12;;;;;;;8.60;5.70;;;;;;;23.32;38.66;100667.86;105487;1297;75483;-86
2023/06/01 03:35:38;;;;;;;12.70;6.00;;;;;;;23.32;38.92;100664.05;105326;1302;68609;-86
2023/06/01 03:38:03;;;;;;;8.10;5.70;;;;;;;23.32;38.80;100667.85;105353;1297;68120;-86
2023/06/01 03:40:29;;;;;;;7.40;5.50;;;;;;;23.32;38.78;100668.98;105376;1297;67833;-86
2023/06/01 03:42:55;;;;;;;8.10;5.90;;;;;;;23.32;38.72;100665.59;105445;1297;67787;-87
2023/06/01 03:45:20;;;;;;;8.90;6.10;;;;;;;23.32;38.84;100663.34;105374;1297;68156;-86
2023/06/01 03:47:46;;;;;;;8.50;5.80;;;;;;;23.32;38.88;100666.93;105433;1297;68446;-86
2023/06/01 03:50:11;;;;;;;7.80;6.00;;;;;;;23.32;38.89;100671.70;105511;1296;67640;-86
2023/06/01 03:52:37;;;;;;;10.10;5.40;;;;;;;23.32;38.93;100669.04;105434;1297;68019;-87
2023/06/01 03:55:13;;;;;;;8.20;5.80;;;;;;;23.31;38.82;100666.78;105326;1302;67788;-86
2023/06/01 03:57:41;;;;;;;8.30;5.50;;;;;;;23.32;38.72;100671.05;105413;1298;67832;-91
2023/06/01 04:00:19;;;;;;;7.70;5.70;;;;;;;23.32;38.82;100672.64;105396;1297;67698;-86
2023/06/01 04:02:53;;;;;;;9.40;6.30;;;;;;;23.32;38.97;100672.64;105380;1302;68162;-86
2023/06/01 04:05:19;;;;;;;8.30;5.50;;;;;;;23.31;39.02;100673.71;105446;1297;74454;-86
2023/06/01 04:07:46;;;;;;;9.00;5.80;;;;;;;23.31;38.98;100673.41;105581;1297;67719;-86
2023/06/01 04:10:13;;;;;;;9.40;6.20;;;;;;;23.31;38.84;100672.95;105603;1297;67787;-86
2023/06/01 04:12:41;;;;;;;6.70;5.50;;;;;;;23.31;38.97;100672.84;105548;1297;67809;-87
2023/06/01 04:15:07;;;;;;;9.10;5.80;;;;;;;23.31;39.01;100672.84;105461;1297;67841;-86
2023/06/01 04:17:36;;;;;;;10.50;5.70;;;;;;;23.31;38.93;100673.55;105631;1297;67712;-86
2023/06/01 04:20:01;;;;;;;7.70;5.90;;;;;;;23.31;38.97;100673.00;105522;1297;67804;-86
2023/06/01 04:22:27;;;;;;;6.90;5.50;;;;;;;23.32;39.00;100679.86;105444;1297;67869;-86
2023/06/01 04:24:52;;;;;;;8.10;5.90;;;;;;;23.32;38.96;100685.67;105392;1303;67889;-86
2023/06/01 04:27:18;;;;;;;8.80;5.70;;;;;;;23.31;38.92;100684.85;105416;1297;67744;-86
2023/06/01 04:29:44;;;;;;;12.70;5.90;;;;;;;23.32;39.00;100690.03;105497;1297;68034;-86
2023/06/01 04:32:10;;;;;;;7.50;6.10;;;;;;;23.31;39.18;100688.29;105439;1297;67760;-86
2023/06/01 04:34:37;;;;;;;8.70;5.80;;;;;;;23.32;39.08;100687.48;105405;1297;67694;-86
2023/06/01 04:37:04;;;;;;;6.40;5.60;;;;;;;23.32;39.04;100693.02;105623;1297;67306;-86
2023/06/01 04:39:30;;;;;;;11.90;5.90;;;;;;;23.32;39.16;100695.02;105467;1299;81994;-91
2023/06/01 04:41:57;;;;;;;11.60;6.00;;;;;;;23.32;39.01;100693.69;105346;1301;67193;-86
2023/06/01 04:44:22;;;;;;;8.90;5.90;;;;;;;23.32;39.11;100694.65;105417;1304;67725;-86
2023/06/01 04:46:49;;;;;;;8.20;5.50;;;;;;;23.32;39.14;100698.96;105483;1297;67858;-86
2023/06/01 04:49:15;;;;;;;7.40;5.70;;;;;;;23.32;39.04;100702.88;105435;1301;68194;-86
2023/06/01 04:51:41;;;;;;;7.60;6.10;;;;;;;23.32;39.14;100704.77;105424;1297;67959;-86
2023/06/01 04:54:07;;;;;;;9.90;6.00;;;;;;;23.33;39.12;100714.01;105381;1297;67423;-86
2023/06/01 04:56:32;;;;;;;11.00;6.10;;;;;;;23.32;39.04;100713.40;105480;1297;67802;-86
2023/06/01 04:58:58;;;;;;;8.80;6.00;;;;;;;23.34;39.24;100711.69;105527;1297;67735;-86
2023/06/01 05:01:25;;;;;;;9.40;6.50;;;;;;;23.34;39.29;100718.48;105425;1297;74233;-86
2023/06/01 05:03:52;;;;;;;10.50;6.00;;;;;;;23.33;39.23;100718.58;105556;1297;67698;-86
2023/06/01 05:06:27;;;;;;;7.00;5.70;;;;;;;23.34;39.24;100713.28;105407;1297;67931;-91
2023/06/01 05:08:53;;;;;;;9.00;6.10;;;;;;;23.34;39.43;100712.27;105482;1297;67772;-86
2023/06/01 05:11:18;;;;;;;10.90;6.20;;;;;;;23.34;39.23;100712.46;105434;1296;67746;-85
2023/06/01 05:13:44;;;;;;;13.40;6.20;;;;;;;23.34;39.45;100709.80;105582;1297;67888;-86
2023/06/01 05:16:10;;;;;;;8.00;6.00;;;;;;;23.34;39.46;100714.72;105420;1297;67882;-86
2023/06/01 05:18:36;;;;;;;8.80;6.30;;;;;;;23.34;39.45;100717.55;105538;1297;68072;-87
2023/06/01 05:21:02;;;;;;;10.80;6.50;;;;;;;23.34;39.38;100718.00;105640;1297;67681;-86
2023/06/01 05:23:28;;;;;;;10.40;6.30;;;;;;;23.35;39.49;100718.46;105637;1297;68098;-86
2023/06/01 05:26:02;;;;;;;9.50;6.50;;;;;;;23.35;39.45;100721.70;105478;1297;68026;-87
2023/06/01 05:28:31;;;;;;;11.00;6.30;;;;;;;23.34;39.56;100722.48;105478;1297;67795;-86
2023/06/01 05:30:56;;;;;;;11.80;6.50;;;;;;;23.34;39.57;100720.52;105594;1297;67956;-86
2023/06/01 05:33:22;;;;;;;11.10;6.40;;;;;;;23.34;39.60;100727.20;105572;1296;67705;-87
2023/06/01 05:35:48;;;;;;;9.00;6.60;;;;;;;23.34;39.57;100725.04;105476;1297;68226;-87
2023/06/01 05:38:13;;;;;;;8.30;6.50;;;;;;;23.34;39.62;100726.48;105445;1297;68140;-86
2023/06/01 05:40:39;;;;;;;13.10;6.60;;;;;;;23.34;39.68;100727.60;105490;1297;67900;-86
2023/06/01 05:43:06;;;;;;;8.80;6.60;;;;;;;23.34;39.75;100730.38;105425;1297;67063;-86
2023/06/01 05:45:32;;;;;;;11.70;6.80;;;;;;;23.33;39.90;100737.10;105560;1297;74218;-87
2023/06/01 05:47:57;;;;;;;13.90;6.80;;;;;;;23.34;39.95;100738.99;105396;1297;69156;-86
2023/06/01 05:50:23;;;;;;;10.10;6.80;;;;;;;23.34;40.05;100742.80;105451;1297;67965;-87
2023/06/01 05:52:49;;;;;;;11.10;7.50;;;;;;;23.34;40.00;100744.39;105458;1297;68189;-86
2023/06/01 05:55:14;;;;;;;9.80;7.00;;;;;;;23.35;39.86;100747.71;105518;1297;67847;-87
2023/06/01 05:57:40;;;;;;;10.50;7.10;;;;;;;23.35;40.02;100750.96;105412;1297;67845;-87
2023/06/01 06:00:15;;;;;;;10.60;7.20;;;;;;;23.35;40.06;100751.92;105452;1297;67872;-92
2023/06/01 06:02:44;;;;;;;13.50;7.00;;;;;;;23.35;40.11;100755.59;105470;1297;67765;-87
2023/06/01 06:05:10;;;;;;;12.90;6.90;;;;;;;23.35;40.09;100754.91;105429;1297;68580;-87
2023/06/01 06:07:36;;;;;;;9.50;6.90;;;;;;;23.35;40.20;100757.27;105475;1297;68718;-87
2023/06/01 06:10:03;;;;;;;10.80;7.00;;;;;;;23.35;40.35;100758.71;105439;1297;67807;-87
2023/06/01 06:12:29;;;;;;;15.20;7.90;;;;;;;23.35;40.31;100756.45;105483;1297;67892;-87
2023/06/01 06:14:54;;;;;;;10.50;6.80;;;;;;;23.34;40.36;100756.55;105391;1297;67748;-87
2023/06/01 06:17:20;;;;;;;9.80;6.70;;;;;;;23.35;40.33;100757.48;105562;1297;67385;-87
2023/06/01 06:19:47;;;;;;;9.60;7.20;;;;;;;23.35;40.38;100759.33;105833;1297;67231;-87
2023/06/01 06:22:13;;;;;;;10.90;6.90;;;;;;;23.35;40.35;100755.58;105970;1297;67728;-87
2023/06/01 06:24:39;;;;;;;8.90;6.60;;;;;;;23.35;40.51;100758.00;105827;1297;67221;-87
2023/06/01 06:27:08;;;;;;;12.40;7.40;;;;;;;23.35;40.48;100757.84;105577;1297;67275;-91
2023/06/01 06:29:34;;;;;;;13.20;7.60;;;;;;;23.34;40.50;100762.47;105465;1297;74433;-86
2023/06/01 06:31:59;;;;;;;13.80;7.90;;;;;;;23.34;40.58;100763.60;105469;1297;67759;-87
2023/06/01 06:34:25;;;;;;;12.10;7.30;;;;;;;23.34;40.50;100771.09;105433;1297;67891;-87
2023/06/01 06:36:52;;;;;;;11.10;7.30;;;;;;;23.34;40.74;100770.06;105575;1297;67840;-87
2023/06/01 06:39:18;;;;;;;11.30;6.80;;;;;;;23.35;40.73;100775.36;105461;1297;68004;-88
2023/06/01 06:41:44;;;;;;;13.00;6.30;;;;;;;23.34;40.80;100779.98;105516;1297;67829;-87
2023/06/01 06:44:09;;;;;;;15.40;8.70;;;;;;;23.34;40.64;100777.56;105439;1297;67659;-87
2023/06/01 06:46:35;;;;;;;12.90;7.30;;;;;;;23.34;40.82;100777.25;105408;1297;67842;-87
2023/06/01 06:49:01;;;;;;;14.20;7.30;;;;;;;23.34;40.67;100783.47;105528;1297;67255;-87
2023/06/01 06:51:26;;;;;;;13.10;7.10;;;;;;;23.34;40.64;100788.81;105467;1297;67932;-87
2023/06/01 06:56:25;;;;;;;10.20;7.50;;;;;;;23.33;40.88;100791.17;105568;1296;67779;-87
2023/06/01 06:58:54;;;;;;;11.90;7.10;;;;;;;23.34;40.85;100792.61;105543;1297;67796;-87
2023/06/01 07:01:20;;;;;;;11.80;6.50;;;;;;;23.33;40.80;100788.56;105498;1296;67133;-87
2023/06/01 07:03:46;;;;;;;10.90;7.20;;;;;;;23.34;40.81;100794.41;105462;1297;68207;-87
2023/06/01 07:06:11;;;;;;;9.60;7.10;;;;;;;23.33;40.92;100794.81;105388;1299;67921;-88
2023/06/01 07:08:38;;;;;;;9.10;6.60;;;;;;;23.33;40.99;100797.80;105323;1299;333018;-87
2023/06/01 07:11:04;;;;;;;12.10;7.60;;;;;;;23.33;40.91;100800.16;105574;1298;68356;-86
2023/06/01 07:13:30;;;;;;;12.10;7.20;;;;;;;23.33;41.02;100797.48;105471;1299;67801;-86
2023/06/01 07:15:56;;;;;;;11.00;7.20;;;;;;;23.33;40.93;100804.11;105576;1298;67953;-87
2023/06/01 07:18:21;;;;;;;11.50;7.50;;;;;;;23.33;41.05;100810.17;105401;1301;68342;-87
2023/06/01 07:23:18;;;;;;;11.30;7.00;;;;;;;23.33;41.22;100817.25;105944;1296;67817;-86
2023/06/01 07:25:44;;;;;;;15.10;7.30;;;;;;;23.33;41.09;100814.69;105941;1296;67092;-86
2023/06/01 07:28:10;;;;;;;11.00;7.30;;;;;;;23.33;41.11;100818.39;106004;1296;67921;-86
2023/06/01 07:30:35;;;;;;;10.70;7.20;;;;;;;23.33;41.13;100821.23;105814;1296;67740;-86
2023/06/01 07:33:04;;;;;;;10.60;6.80;;;;;;;23.33;41.15;100821.06;105650;1296;67091;-87
2023/06/01 07:35:30;;;;;;;14.50;7.60;;;;;;;23.33;41.10;100823.52;105619;1295;67865;-86
2023/06/01 07:37:55;;;;;;;11.30;7.00;;;;;;;23.33;41.23;100828.50;105497;1299;67897;-86
2023/06/01 07:40:21;;;;;;;10.20;7.20;;;;;;;23.33;41.10;100831.95;105614;1297;68116;-86
2023/06/01 07:42:47;;;;;;;11.30;7.50;;;;;;;23.34;41.13;100832.56;105509;1297;67952;-86
2023/06/01 07:45:13;;;;;;;12.70;7.50;;;;;;;23.33;41.24;100827.95;105532;1294;68084;-86
2023/06/01 07:50:12;;;;;;;14.90;7.70;;;;;;;23.33;41.23;100822.90;105642;1296;68554;-86
2023/06/01 07:52:38;;;;;;;18.10;7.80;;;;;;;23.33;41.36;100823.32;105568;1297;67849;-86
2023/06/01 07:55:04;;;;;;;10.50;7.20;;;;;;;23.33;41.43;100828.45;105535;1299;67772;-86
2023/06/01 07:57:30;;;;;;;13.00;7.20;;;;;;;23.34;41.42;100825.21;105556;1296;68378;-86
2023/06/01 07:59:56;;;;;;;10.10;7.00;;;;;;;23.34;41.47;100828.66;105595;1297;67206;-87
2023/06/01 08:02:22;;;;;;;11.40;7.50;;;;;;;23.33;41.38;100824.19;105544;1297;67827;-86
2023/06/01 08:04:48;;;;;;;14.20;7.50;;;;;;;23.33;41.53;100822.19;105641;1298;67343;-87
2023/06/01 08:07:16;;;;;;;11.40;7.90;;;;;;;23.33;41.65;100819.52;105406;1300;67169;-86
2023/06/01 08:09:42;;;;;;;13.20;7.90;;;;;;;23.34;41.70;100816.90;105315;1300;74438;-86
2023/06/01 08:12:08;;;;;;;13.60;8.40;;;;;;;23.34;41.74;100819.72;105547;1299;67184;-87
2023/06/01 08:17:13;;;;;;;11.10;7.60;;;;;;;23.34;41.88;100817.77;105668;1295;67641;-86
2023/06/01 08:19:41;;;;;;;12.30;7.40;;;;;;;23.34;42.02;100816.23;105552;1295;68145;-86
2023/06/01 08:22:07;;;;;;;13.00;7.40;;;;;;;23.34;42.10;100818.48;105716;1297;74467;-86
2023/06/01 08:24:33;;;;;;;14.50;7.50;;;;;;;23.35;42.09;100815.30;105617;1297;68142;-86
2023/06/01 08:26:59;;;;;;;9.90;7.50;;;;;;;23.34;42.19;100819.77;105558;1297;68076;-87
2023/06/01 08:29:25;;;;;;;11.20;7.60;;;;;;;23.34;42.32;100819.11;105564;1296;67614;-86
2023/06/01 08:31:50;;;;;;;13.80;7.90;;;;;;;23.34;42.42;100819.81;105548;1297;68440;-86
2023/06/01 08:34:16;;;;;;;12.90;7.80;;;;;;;23.35;42.42;100820.84;105672;1297;67871;-86
2023/06/01 08:36:41;;;;;;;16.00;8.30;;;;;;;23.35;42.48;100820.53;105556;1296;67891;-86
2023/06/01 08:39:23;;;;;;;13.00;7.50;;;;;;;23.35;42.56;100822.13;105500;1296;67993;-87
2023/06/01 08:42:08;;;;;;;11.10;7.70;;;;;;;23.34;42.45;100818.95;105496;1296;67756;-87
2023/06/01 08:44:42;;;;;;;12.80;7.80;;;;;;;23.34;42.63;100820.44;105557;1296;75562;-91
2023/06/01 08:47:08;;;;;;;11.10;7.50;;;;;;;23.34;42.77;100817.30;105659;1296;67825;-86
2023/06/01 08:49:34;;;;;;;13.50;8.20;;;;;;;23.35;42.88;100818.42;105430;1297;69022;-86
2023/06/01 08:52:02;;;;;;;15.80;7.70;;;;;;;23.35;42.79;100820.95;105520;1296;68074;-86
2023/06/01 08:54:30;;;;;;;12.30;8.00;;;;;;;23.34;42.72;100818.47;105545;1298;68203;-86
2023/06/01 08:56:59;;;;;;;14.80;7.30;;;;;;;23.34;42.99;100815.66;105496;1296;74456;-86
2023/06/01 09:02:05;;;;;;;10.90;7.10;;;;;;;23.33;43.09;100817.72;105601;1297;67105;-86
2023/06/01 09:04:33;;;;;;;12.10;7.20;;;;;;;23.34;43.09;100815.20;105504;1297;67421;-86
2023/06/01 09:06:59;;;;;;;13.50;7.90;;;;;;;23.34;43.15;100813.97;105549;1299;67848;-86
2023/06/01 09:09:25;;;;;;;10.40;7.50;;;;;;;23.34;43.29;100816.64;105486;1298;67864;-86
2023/06/01 09:12:19;;;;;;;13.20;7.30;;;;;;;23.34;43.31;100817.25;105425;1301;68056;-87
2023/06/01 09:14:45;;;;;;;13.10;7.30;;;;;;;23.33;43.41;100813.26;105410;1299;67843;-87
2023/06/01 09:17:15;;;;;;;9.50;7.20;;;;;;;23.34;43.36;100812.79;105404;1302;67928;-86
2023/06/01 09:19:44;;;;;;;9.80;7.50;;;;;;;23.34;43.47;100814.06;105562;1298;67788;-86
2023/06/01 09:22:10;;;;;;;12.80;7.70;;;;;;;23.34;43.53;100812.27;105447;1299;74402;-86
2023/06/01 09:24:36;;;;;;;10.00;7.20;;;;;;;23.34;43.55;100805.91;105382;1300;68545;-87
2023/06/01 09:27:01;;;;;;;11.50;7.00;;;;;;;23.34;43.62;100807.66;105240;1300;67197;-87
2023/06/01 09:29:27;;;;;;;9.60;7.60;;;;;;;23.35;43.57;100809.09;105584;1299;68098;-87
2023/06/01 09:31:53;;;;;;;11.60;6.70;;;;;;;23.35;43.61;100809.51;105456;1299;68467;-86
2023/06/01 09:34:20;;;;;;;13.00;6.90;;;;;;;23.35;43.57;100805.84;105255;1300;68863;-86
2023/06/01 09:36:52;;;;;;;9.70;6.80;;;;;;;23.34;43.61;100808.22;105444;1299;67838;-86
2023/06/01 09:39:19;;;;;;;9.10;6.80;;;;;;;23.34;43.60;100809.09;105275;1299;68423;-86
2023/06/01 09:41:51;;;;;;;10.40;6.40;;;;;;;23.35;43.67;100807.70;105385;1299;67788;-87
2023/06/01 09:44:30;;;;;;;10.10;6.60;;;;;;;23.34;43.61;100804.98;105586;1299;67771;-87
2023/06/01 09:47:03;;;;;;;10.60;6.50;;;;;;;23.34;43.61;100805.23;105313;1299;74438;-86
2023/06/01 09:49:30;;;;;;;8.80;6.80;;;;;;;23.34;43.69;100805.91;105262;1299;67093;-86
2023/06/01 09:52:05;;;;;;;10.60;6.80;;;;;;;23.34;43.56;100810.06;105387;1304;68521;-86
2023/06/01 09:54:32;;;;;;;7.90;6.50;;;;;;;23.35;43.61;100810.52;105463;1299;67767;-87
2023/06/01 09:56:58;;;;;;;9.40;6.80;;;;;;;23.34;43.48;100807.50;105258;1300;68462;-86
2023/06/01 09:59:24;;;;;;;9.40;6.30;;;;;;;23.35;43.56;100803.75;105328;1298;68168;-87
2023/06/01 10:01:54;;;;;;;9.30;6.40;;;;;;;23.35;43.57;100803.74;105326;1302;67829;-86
2023/06/01 10:04:26;;;;;;;11.50;6.60;;;;;;;23.35;43.58;100801.89;105340;1299;69082;-86
2023/06/01 10:06:56;;;;;;;10.40;6.70;;;;;;;23.35;43.45;100799.54;105452;1298;67202;-86
2023/06/01 10:09:22;;;;;;;10.60;6.30;;;;;;;23.35;43.37;100796.39;105386;1298;67668;-86
2023/06/01 10:11:50;;;;;;;10.40;6.30;;;;;;;23.35;43.40;100797.27;105346;1299;68178;-86
2023/06/01 10:14:18;;;;;;;8.40;5.70;;;;;;;23.35;43.42;100799.33;105444;1299;67122;-91
2023/06/01 10:16:44;;;;;;;9.10;6.50;;;;;;;23.36;43.31;100798.23;105439;1299;67726;-86
2023/06/01 10:19:10;;;;;;;7.10;5.70;;;;;;;23.35;43.35;100792.55;105367;1298;67831;-86
2023/06/01 10:21:36;;;;;;;10.00;6.00;;;;;;;23.36;43.29;100790.54;105327;1300;67951;-86
2023/06/01 10:24:05;;;;;;;8.70;6.10;;;;;;;23.36;43.21;100787.71;105350;1302;68005;-86
2023/06/01 10:26:30;;;;;;;9.40;6.40;;;;;;;23.37;43.29;100786.11;105299;1300;72353;-87
2023/06/01 10:28:56;;;;;;;8.00;5.90;;;;;;;23.37;43.21;100782.83;105284;1300;67768;-86
2023/06/01 10:31:35;;;;;;;11.10;6.10;;;;;;;23.37;43.12;100783.19;105473;1299;69125;-86
2023/06/01 10:34:01;;;;;;;8.80;6.00;;;;;;;23.37;43.21;100781.13;105501;1299;67709;-86
2023/06/01 10:36:51;;;;;;;7.20;5.70;;;;;;;23.38;43.13;100775.48;105349;1299;69100;-86
2023/06/01 10:39:24;;;;;;;8.30;5.60;;;;;;;23.38;43.00;100775.73;105437;1300;69080;-86
2023/06/01 10:41:50;;;;;;;7.00;5.60;;;;;;;23.38;42.90;100772.96;105516;1299;69112;-87
2023/06/01 10:44:37;;;;;;;9.00;6.10;;;;;;;23.39;43.00;100773.36;105700;1299;67206;-87
2023/06/01 10:49:49;;;;;;;7.10;5.90;;;;;;;23.40;42.66;100764.84;105667;1297;72977;-86
2023/06/01 10:52:27;;;;;;;8.30;5.70;;;;;;;23.40;42.73;100758.69;105504;1297;67674;-87
2023/06/01 10:54:53;;;;;;;7.70;6.10;;;;;;;23.41;42.64;100758.73;105509;1299;68461;-87
2023/06/01 10:57:25;;;;;;;7.60;5.40;;;;;;;23.42;42.67;100757.30;105460;1297;68031;-87
2023/06/01 11:00:20;;;;;;;10.30;6.00;;;;;;;23.43;42.48;100758.30;105435;1296;67086;-86
2023/06/01 11:02:59;;;;;;;5.90;5.20;;;;;;;23.44;42.53;100755.98;105459;1297;74267;-87
2023/06/01 11:05:50;;;;;;;8.60;6.00;;;;;;;23.44;42.36;100752.48;105483;1297;67775;-87
2023/06/01 11:08:21;;;;;;;7.10;5.60;;;;;;;23.44;42.32;100747.98;105586;1297;68009;-87
2023/06/01 11:13:34;;;;;;;6.60;5.80;;;;;;;23.46;42.20;100745.88;105624;1297;67746;-86
2023/06/01 11:16:20;;;;;;;7.80;5.30;;;;;;;23.46;42.03;100742.08;105486;1297;74198;-87
2023/06/01 11:18:49;;;;;;;8.60;5.80;;;;;;;23.46;42.02;100739.14;105614;1297;67792;-87
2023/06/01 11:21:24;;;;;;;8.70;5.80;;;;;;;23.47;42.08;100734.82;105494;1297;67837;-87
2023/06/01 11:23:50;;;;;;;8.30;5.40;;;;;;;23.47;42.10;100731.80;105496;1297;68011;-87
2023/06/01 11:26:17;;;;;;;9.30;5.70;;;;;;;23.47;42.01;100730.24;105541;1296;67796;-87
2023/06/01 11:28:44;;;;;;;7.70;5.90;;;;;;;23.48;41.79;100727.88;105587;1296;74758;-86
2023/06/01 11:31:15;;;;;;;6.80;5.90;;;;;;;23.48;41.86;100720.02;105573;1297;67872;-87
2023/06/01 11:33:41;;;;;;;7.30;5.40;;;;;;;23.48;41.84;100712.98;105626;1297;67986;-87
2023/06/01 11:36:13;;;;;;;6.60;5.20;;;;;;;23.48;41.72;100707.48;105532;1297;67813;-87
2023/06/01 11:38:43;;;;;;;9.10;5.50;;;;;;;23.48;41.67;100703.84;105477;1297;67505;-87
2023/06/01 11:41:09;;;;;;;8.70;5.40;;;;;;;23.48;41.70;100699.17;105494;1297;74523;-87
2023/06/01 11:43:34;;;;;;;8.50;5.50;;;;;;;23.49;41.56;100696.23;105595;1296;68524;-87
2023/06/01 11:46:04;;;;;;;8.70;5.40;;;;;;;23.48;41.40;100689.86;105543;1297;67813;-86